createdAt,value
2019-03-08T00:04:45.757Z,2.60
2019-03-08T00:09:39.451Z,2.47
2019-03-08T00:14:33.135Z,3.10
2019-03-08T00:19:26.817Z,3.67
2019-03-08T00:24:20.208Z,3.20
2019-03-08T00:29:13.586Z,2.97
2019-03-08T00:34:07.253Z,3.23
2019-03-08T00:39:00.634Z,3.80
2019-03-08T00:43:54.016Z,3.53
2019-03-08T00:48:47.700Z,3.77
2019-03-08T00:53:41.078Z,3.13
2019-03-08T00:58:34.495Z,4.20
2019-03-08T01:03:28.146Z,3.73
2019-03-08T01:08:21.516Z,4.00
2019-03-08T01:13:14.888Z,4.55
2019-03-08T01:18:08.246Z,4.73
2019-03-08T01:23:01.665Z,4.73
2019-03-08T01:27:55.949Z,5.30
2019-03-08T01:32:49.330Z,5.33
2019-03-08T01:37:42.786Z,4.83
2019-03-08T01:42:36.399Z,5.20
2019-03-08T01:47:29.784Z,5.37
2019-03-08T01:52:23.154Z,5.67
2019-03-08T01:57:16.526Z,5.60
2019-03-08T02:02:10.519Z,5.57
2019-03-08T02:07:03.310Z,5.10
2019-03-08T02:11:56.678Z,5.00
2019-03-08T02:16:50.049Z,4.97
2019-03-08T02:21:43.480Z,5.60
2019-03-08T02:26:37.115Z,5.30
2019-03-08T02:31:30.493Z,6.00
2019-03-08T02:36:23.877Z,4.93
2019-03-08T02:41:17.260Z,5.27
2019-03-08T02:46:10.673Z,5.73
2019-03-08T02:51:04.056Z,5.43
2019-03-08T02:55:57.445Z,5.97
2019-03-08T03:00:51.081Z,5.30
2019-03-08T03:05:44.500Z,5.20
2019-03-08T03:10:38.142Z,5.53
2019-03-08T03:15:31.847Z,5.37
2019-03-08T03:20:25.312Z,5.20
2019-03-08T03:25:18.917Z,5.13
2019-03-08T03:30:12.519Z,5.33
2019-03-08T03:35:05.989Z,4.97
2019-03-08T03:39:59.423Z,5.43
2019-03-08T03:44:52.804Z,5.47
2019-03-08T03:49:46.476Z,5.07
2019-03-08T03:54:40.227Z,5.87
2019-03-08T03:59:33.686Z,5.20
2019-03-08T04:04:27.149Z,5.83
2019-03-08T04:09:20.849Z,6.00
2019-03-08T04:14:14.225Z,5.43
2019-03-08T04:19:07.681Z,5.80
2019-03-08T04:24:01.175Z,5.57
2019-03-08T04:28:54.675Z,5.77
2019-03-08T04:33:48.211Z,5.70
2019-03-08T04:38:41.613Z,6.20
2019-03-08T04:43:35.123Z,5.43
2019-03-08T04:48:28.488Z,5.20
2019-03-08T04:53:22.192Z,5.70
2019-03-08T04:58:15.873Z,5.27
2019-03-08T05:03:09.293Z,5.00
2019-03-08T05:08:02.687Z,5.03
2019-03-08T05:12:56.316Z,4.67
2019-03-08T05:17:51.377Z,5.23
2019-03-08T05:22:44.803Z,5.27
2019-03-08T05:27:42.362Z,5.03
2019-03-08T05:32:36.028Z,5.00
2019-03-08T05:37:29.479Z,4.70
2019-03-08T05:42:23.060Z,3.97
2019-03-08T05:47:16.733Z,3.63
2019-03-08T05:52:10.223Z,3.80
2019-03-08T05:57:03.675Z,3.50
2019-03-08T06:01:57.174Z,3.40
2019-03-08T06:06:50.557Z,3.43
2019-03-08T06:11:44.259Z,3.60
2019-03-08T06:16:37.646Z,3.67
2019-03-08T06:21:31.333Z,3.83
2019-03-08T06:26:25.016Z,3.70
2019-03-08T06:31:18.385Z,4.10
2019-03-08T06:36:12.072Z,3.70
2019-03-08T06:41:05.486Z,3.17
2019-03-08T06:45:59.137Z,3.67
2019-03-08T06:50:52.815Z,3.80
2019-03-08T06:55:46.259Z,3.87
2019-03-08T07:00:59.134Z,3.93
2019-03-08T07:05:52.511Z,3.13
2019-03-08T07:10:45.989Z,3.20
2019-03-08T07:15:39.668Z,2.70
2019-03-08T07:20:52.317Z,3.60
2019-03-08T07:25:59.741Z,3.23
2019-03-08T07:31:11.088Z,2.97
2019-03-08T07:36:29.717Z,2.77
2019-03-08T07:41:48.772Z,2.93
2019-03-08T07:47:10.607Z,2.83
2019-03-08T07:52:22.455Z,3.60
2019-03-08T07:57:50.645Z,2.97
2019-03-08T08:03:09.075Z,3.07
2019-03-08T08:08:07.717Z,3.80
2019-03-08T08:13:38.902Z,4.20
2019-03-08T08:18:41.696Z,3.53
2019-03-08T08:23:50.421Z,3.97
2019-03-08T08:29:03.344Z,3.40
2019-03-08T08:34:27.929Z,3.47
2019-03-08T08:39:28.831Z,3.50
2019-03-08T08:44:36.455Z,3.60
2019-03-08T08:49:38.693Z,3.33
2019-03-08T08:54:54.531Z,3.33
2019-03-08T08:59:52.829Z,3.43
2019-03-08T09:05:04.711Z,3.20
2019-03-08T09:10:17.383Z,3.00
2019-03-08T09:15:24.090Z,3.43
2019-03-08T09:20:48.718Z,3.53
2019-03-08T09:26:07.204Z,2.73
2019-03-08T09:31:06.772Z,3.07
2019-03-08T09:36:19.191Z,2.73
2019-03-08T09:41:27.347Z,3.73
2019-03-08T09:46:40.342Z,2.70
2019-03-08T09:51:51.730Z,3.40
2019-03-08T09:57:02.950Z,2.63
2019-03-08T10:02:11.659Z,3.67
2019-03-08T10:07:25.056Z,3.27
2019-03-08T10:12:40.654Z,3.37
2019-03-08T10:17:53.339Z,2.60
2019-03-08T10:23:02.666Z,2.57
2019-03-08T10:28:13.194Z,3.10
2019-03-08T10:33:46.277Z,3.30
2019-03-08T10:38:55.904Z,3.13
2019-03-08T10:44:11.950Z,3.10
2019-03-08T10:49:23.728Z,2.90
2019-03-08T10:54:32.366Z,3.17
2019-03-08T10:59:53.231Z,3.10
2019-03-08T11:05:11.721Z,2.97
2019-03-08T11:10:31.163Z,2.80
2019-03-08T11:15:44.021Z,3.10
2019-03-08T11:20:56.761Z,3.20
2019-03-08T11:26:09.409Z,3.17
2019-03-08T11:31:21.442Z,2.47
2019-03-08T11:36:23.000Z,3.30
2019-03-08T11:41:33.675Z,3.30
2019-03-08T11:46:31.869Z,2.53
2019-03-08T11:51:43.491Z,3.23
2019-03-08T11:57:02.125Z,3.20
2019-03-08T12:02:06.903Z,3.10
2019-03-08T12:07:22.208Z,3.40
2019-03-08T12:12:38.004Z,2.93
2019-03-08T12:17:38.093Z,2.90
2019-03-08T12:22:49.294Z,3.07
2019-03-08T12:28:01.461Z,2.77
2019-03-08T12:33:07.543Z,3.00
2019-03-08T12:38:18.068Z,2.57
2019-03-08T12:43:33.420Z,3.30
2019-03-08T12:48:50.559Z,2.30
2019-03-08T12:54:12.116Z,2.97
2019-03-08T12:59:30.663Z,2.23
2019-03-08T13:04:41.820Z,2.90
2019-03-08T13:10:03.421Z,2.67
2019-03-08T13:14:56.809Z,2.20
2019-03-08T13:19:50.439Z,2.77
2019-03-08T13:24:44.126Z,2.77
2019-03-08T13:29:37.799Z,2.27
2019-03-08T13:34:31.179Z,2.20
2019-03-08T13:39:24.857Z,2.03
2019-03-08T13:44:18.230Z,2.80
2019-03-08T13:49:11.622Z,1.80
2019-03-08T13:54:05.316Z,1.97
2019-03-08T13:58:58.711Z,2.07
2019-03-08T14:03:52.390Z,2.17
2019-03-08T14:08:45.743Z,2.40
2019-03-08T14:13:39.129Z,1.97
2019-03-08T14:18:32.622Z,1.60
2019-03-08T14:23:26.197Z,1.77
2019-03-08T14:28:19.583Z,1.67
2019-03-08T14:33:13.270Z,1.50
2019-03-08T14:38:09.839Z,1.50
2019-03-08T14:43:13.157Z,1.20
2019-03-08T14:48:05.886Z,1.57
2019-03-08T14:52:57.359Z,1.30
2019-03-08T14:57:50.913Z,1.40
2019-03-08T15:02:47.088Z,1.40
2019-03-08T15:07:41.056Z,1.40
2019-03-08T15:12:33.075Z,1.20
2019-03-08T15:17:25.331Z,1.57
2019-03-08T15:22:18.735Z,1.17
2019-03-08T15:27:12.410Z,1.33
2019-03-08T15:32:05.865Z,1.37
2019-03-08T15:36:59.508Z,1.17
2019-03-08T15:41:53.187Z,1.20
2019-03-08T15:46:46.874Z,1.20
2019-03-08T15:51:40.562Z,1.13
2019-03-08T15:56:34.246Z,1.43
2019-03-08T16:01:27.920Z,1.50
2019-03-08T16:06:21.330Z,1.37
2019-03-08T16:11:14.977Z,1.47
2019-03-08T16:16:08.402Z,1.13
2019-03-08T16:21:02.063Z,1.20
2019-03-08T16:25:55.524Z,1.20
2019-03-08T16:30:52.440Z,0.87
2019-03-08T16:36:00.087Z,1.70
2019-03-08T16:41:04.883Z,1.43
2019-03-08T16:46:20.545Z,1.43
2019-03-08T16:51:40.386Z,1.37
2019-03-08T16:56:59.229Z,1.40
2019-03-08T17:02:12.468Z,1.30
2019-03-08T17:07:23.790Z,1.10
2019-03-08T17:12:54.882Z,1.17
2019-03-08T17:18:16.270Z,1.37
2019-03-08T17:23:32.298Z,1.50
2019-03-08T17:28:43.692Z,1.00
2019-03-08T17:33:51.494Z,1.03
2019-03-08T17:39:05.171Z,1.60
2019-03-08T17:44:26.885Z,1.57
2019-03-08T17:49:29.523Z,1.27
2019-03-08T17:54:48.307Z,1.50
2019-03-08T17:59:48.858Z,1.10
2019-03-08T18:05:01.555Z,1.70
2019-03-08T18:10:08.474Z,1.43
2019-03-08T18:15:21.182Z,1.17
2019-03-08T18:20:39.823Z,1.10
2019-03-08T18:26:04.730Z,1.10
2019-03-08T18:31:20.052Z,1.23
2019-03-08T18:36:23.104Z,1.20
2019-03-08T18:41:33.085Z,1.43
2019-03-08T18:46:57.771Z,1.30
2019-03-08T18:52:09.478Z,1.23
2019-03-08T18:57:25.787Z,1.40
2019-03-08T19:02:41.470Z,1.47
2019-03-08T19:08:00.146Z,1.33
2019-03-08T19:13:02.451Z,1.53
2019-03-08T19:18:21.051Z,1.20
2019-03-08T19:23:26.593Z,1.80
2019-03-08T19:28:57.678Z,1.30
2019-03-08T19:34:25.311Z,1.50
2019-03-08T19:39:34.599Z,1.40
2019-03-08T19:44:37.952Z,1.53
2019-03-08T19:49:50.739Z,1.53
2019-03-08T19:55:15.419Z,1.47
2019-03-08T20:00:26.879Z,1.47
2019-03-08T20:05:39.577Z,1.80
2019-03-08T20:10:53.776Z,1.43
2019-03-08T20:16:09.101Z,1.13
2019-03-08T20:21:12.050Z,1.47
2019-03-08T20:26:24.971Z,1.23
2019-03-08T20:31:33.777Z,1.47
2019-03-08T20:36:49.506Z,1.97
2019-03-08T20:42:02.137Z,1.57
2019-03-08T20:47:02.422Z,1.10
2019-03-08T20:51:55.869Z,1.53
2019-03-08T20:56:49.240Z,1.27
2019-03-08T21:01:42.604Z,1.67
2019-03-08T21:06:35.982Z,1.60
2019-03-08T21:11:29.403Z,1.97
2019-03-08T21:16:22.809Z,1.30
2019-03-08T21:21:16.252Z,1.43
2019-03-08T21:26:09.845Z,1.40
2019-03-08T21:31:03.827Z,1.30
2019-03-08T21:35:57.509Z,1.10
2019-03-08T21:40:50.880Z,1.37
2019-03-08T21:45:44.256Z,1.30
2019-03-08T21:50:37.645Z,1.50
2019-03-08T21:55:31.027Z,1.37
2019-03-08T22:00:24.712Z,1.27
2019-03-08T22:05:22.212Z,1.73
2019-03-08T22:10:32.687Z,1.80
2019-03-08T22:15:26.336Z,1.60
2019-03-08T22:20:19.744Z,1.73
2019-03-08T22:25:13.399Z,1.60
2019-03-08T22:30:08.159Z,1.17
2019-03-08T22:35:01.530Z,1.40
2019-03-08T22:39:55.104Z,1.47
2019-03-08T22:44:48.764Z,1.50
2019-03-08T22:49:42.156Z,1.30
2019-03-08T22:54:35.530Z,1.27
2019-03-08T22:59:28.921Z,1.13
2019-03-08T23:04:22.276Z,1.37
2019-03-08T23:09:16.517Z,1.50
2019-03-08T23:14:09.956Z,1.33
2019-03-08T23:19:03.650Z,1.10
2019-03-08T23:23:57.032Z,0.97
2019-03-08T23:29:09.967Z,1.40
2019-03-08T23:34:03.368Z,1.30
2019-03-08T23:38:56.798Z,1.13
2019-03-08T23:43:50.215Z,1.70
2019-03-08T23:48:43.888Z,1.10
2019-03-08T23:53:37.596Z,1.50
2019-03-08T23:58:31.142Z,1.63
